Westville, IN (46391)

12:40 AM CDT on August 24, 2016 (GMT -0500)
Park Place Subdivision | | Change Station
Active Advisory: Flood Warning

Elev 807 ft 41.56 °N, 86.83 °W | Updated 46 minutes ago

Clear
Clear
64.8 °F
Feels Like 64.8 °F
N
0.0
Wind Variable Wind from SSE

Today
High -- | Low -- °F
--% Chance of Precip.
Yesterday
High -- | Low -- °F
Precip. -- in
Pressure 30.12 in
Visibility 10.0 miles
Clouds Clear
Dew Point 60 °F
Humidity 86%
Rainfall in
Snow Depth Not available.
6:06 AM 7:32 PM
Waning Gibbous, 60% visible
METAR KVPZ 240456Z AUTO 15005KT 10SM CLR 20/16 A3013 RMK AO2 SLP198 T02000161
Pressure 30.12 in
Visibility 10.0 miles
Clouds Clear
Dew Point 60 °F
Humidity 86%
Rainfall in
Snow Depth Not available.
6:06 AM 7:32 PM
Waning Gibbous, 60% visible
METAR KVPZ 240456Z AUTO 15005KT 10SM CLR 20/16 A3013 RMK AO2 SLP198 T02000161

10-Day Weather Forecast

Almanac

Astronomy

Aug. 24, 2016 Rise Set
Actual Time
Civil Twilight
Nautical Twilight
Astronomical Twilight
Moon
Length of Visible Light
Length of Day
Tomorrow will be .
, % of the Moon is Illuminated

Today's Extremes

State Highs State Lows

Community

WunderPhotos

Upload Photos

1,934,554 photos uploaded!

WunderBlog® & News

Nearby

Air Quality

  Air Quality AQ Index Pollutant
Not available.

Snow Depth

Station Depth Elevation

Earthquake Activity

City Distance Mag. Time & Date
Minimum magnitude displayed is 2.5.

Coastal Water Temperatures

Place Temperature

Stations

Nearby Weather Stations

Station Location Temp. Windchill Dew Point Humidity Wind Precip. Elev Updated Type
                   

Watches & Warnings

Flood Warning
Issued: 9:57 PM CDT Aug. 23, 2016 – National Weather Service

the Flood Warning has been extended for
the Kankakee River at Davis
* until Sunday evening.
* At 9 PM Tuesday the stage was 11.8 feet and steady.
* Minor flooding is occurring and minor flooding is forecast.
* Flood stage is 10.0 feet.
* Forecast... the river will fall below the 10.0 foot flood stage
around 7 PM Saturday August 27.
* At 11.0 feet... flooding of secondary roads near the river begins.


Lat... Lon 4145 8667 4144 8661 4130 8673 4131 8679
      4143 8670